sensor_id;sensor_type;location;lat;lon;timestamp;temperature;humidity
35603;DHT22;21725;50.836;4.368;2022-09-16T00:01:47;18.40;93.70
35603;DHT22;21725;50.836;4.368;2022-09-16T00:04:13;18.40;93.80
35603;DHT22;21725;50.836;4.368;2022-09-16T00:06:39;18.40;93.80
35603;DHT22;21725;50.836;4.368;2022-09-16T00:09:11;18.40;93.90
35603;DHT22;21725;50.836;4.368;2022-09-16T00:11:37;18.30;94.10
35603;DHT22;21725;50.836;4.368;2022-09-16T00:14:03;18.30;94.20
35603;DHT22;21725;50.836;4.368;2022-09-16T00:16:32;18.20;94.50
35603;DHT22;21725;50.836;4.368;2022-09-16T00:19:05;18.20;94.40
35603;DHT22;21725;50.836;4.368;2022-09-16T00:21:59;18.10;94.60
35603;DHT22;21725;50.836;4.368;2022-09-16T00:25:00;17.90;94.70
35603;DHT22;21725;50.836;4.368;2022-09-16T00:27:58;17.80;94.90
35603;DHT22;21725;50.836;4.368;2022-09-16T00:30:53;17.90;94.70
35603;DHT22;21725;50.836;4.368;2022-09-16T00:33:56;17.60;95.10
35603;DHT22;21725;50.836;4.368;2022-09-16T00:37:03;17.70;94.80
35603;DHT22;21725;50.836;4.368;2022-09-16T00:39:49;17.60;95.10
35603;DHT22;21725;50.836;4.368;2022-09-16T00:42:53;17.70;95.10
35603;DHT22;21725;50.836;4.368;2022-09-16T00:45:32;17.90;94.90
35603;DHT22;21725;50.836;4.368;2022-09-16T00:48:14;17.80;94.80
35603;DHT22;21725;50.836;4.368;2022-09-16T00:54:21;17.80;94.90
35603;DHT22;21725;50.836;4.368;2022-09-16T00:56:59;17.80;94.90
35603;DHT22;21725;50.836;4.368;2022-09-16T01:03:26;17.70;94.80
35603;DHT22;21725;50.836;4.368;2022-09-16T01:09:07;17.80;94.50
35603;DHT22;21725;50.836;4.368;2022-09-16T01:12:11;17.60;94.80
35603;DHT22;21725;50.836;4.368;2022-09-16T01:15:07;17.50;95.00
35603;DHT22;21725;50.836;4.368;2022-09-16T01:18:10;17.60;95.10
35603;DHT22;21725;50.836;4.368;2022-09-16T01:54:26;17.20;96.70
35603;DHT22;21725;50.836;4.368;2022-09-16T02:00:08;17.00;97.00
35603;DHT22;21725;50.836;4.368;2022-09-16T02:06:21;17.20;96.40
35603;DHT22;21725;50.836;4.368;2022-09-16T02:09:02;17.40;95.70
35603;DHT22;21725;50.836;4.368;2022-09-16T02:11:53;17.30;95.60
35603;DHT22;21725;50.836;4.368;2022-09-16T02:14:46;17.20;95.60
35603;DHT22;21725;50.836;4.368;2022-09-16T02:18:05;17.20;95.20
35603;DHT22;21725;50.836;4.368;2022-09-16T02:23:50;17.50;94.80
35603;DHT22;21725;50.836;4.368;2022-09-16T02:33:11;17.70;94.10
35603;DHT22;21725;50.836;4.368;2022-09-16T02:35:54;17.70;94.10
35603;DHT22;21725;50.836;4.368;2022-09-16T02:38:35;17.60;94.20
35603;DHT22;21725;50.836;4.368;2022-09-16T02:41:46;17.50;94.20
35603;DHT22;21725;50.836;4.368;2022-09-16T02:44:23;17.50;94.30
35603;DHT22;21725;50.836;4.368;2022-09-16T02:47:39;17.50;94.20
35603;DHT22;21725;50.836;4.368;2022-09-16T02:51:01;17.30;94.50
35603;DHT22;21725;50.836;4.368;2022-09-16T02:56:54;17.60;93.80
35603;DHT22;21725;50.836;4.368;2022-09-16T02:59:31;17.50;94.00
35603;DHT22;21725;50.836;4.368;2022-09-16T03:02:16;17.60;93.90
35603;DHT22;21725;50.836;4.368;2022-09-16T03:04:52;17.70;93.90
35603;DHT22;21725;50.836;4.368;2022-09-16T03:07:30;17.70;93.50
35603;DHT22;21725;50.836;4.368;2022-09-16T03:13:51;17.60;93.60
35603;DHT22;21725;50.836;4.368;2022-09-16T03:19:38;17.60;93.40
35603;DHT22;21725;50.836;4.368;2022-09-16T03:34:59;17.70;93.90
35603;DHT22;21725;50.836;4.368;2022-09-16T03:38:00;17.70;93.50
35603;DHT22;21725;50.836;4.368;2022-09-16T03:41:03;17.60;93.70
35603;DHT22;21725;50.836;4.368;2022-09-16T03:43:59;17.50;93.70
35603;DHT22;21725;50.836;4.368;2022-09-16T03:46:38;17.50;93.60
35603;DHT22;21725;50.836;4.368;2022-09-16T03:49:23;17.30;93.90
35603;DHT22;21725;50.836;4.368;2022-09-16T03:51:59;17.30;93.90
35603;DHT22;21725;50.836;4.368;2022-09-16T03:54:40;17.40;93.70
35603;DHT22;21725;50.836;4.368;2022-09-16T03:57:19;17.40;93.50
35603;DHT22;21725;50.836;4.368;2022-09-16T04:06:21;17.20;93.80
35603;DHT22;21725;50.836;4.368;2022-09-16T04:09:32;17.10;94.00
35603;DHT22;21725;50.836;4.368;2022-09-16T04:12:27;17.20;94.00
35603;DHT22;21725;50.836;4.368;2022-09-16T04:15:34;17.30;93.90
35603;DHT22;21725;50.836;4.368;2022-09-16T04:21:45;17.30;93.90
35603;DHT22;21725;50.836;4.368;2022-09-16T04:24:23;17.20;94.00
35603;DHT22;21725;50.836;4.368;2022-09-16T04:27:13;17.30;93.90
35603;DHT22;21725;50.836;4.368;2022-09-16T04:30:18;17.30;93.80
35603;DHT22;21725;50.836;4.368;2022-09-16T04:33:05;17.30;93.90
35603;DHT22;21725;50.836;4.368;2022-09-16T04:36:08;17.10;94.20
35603;DHT22;21725;50.836;4.368;2022-09-16T04:38:48;17.00;94.30
35603;DHT22;21725;50.836;4.368;2022-09-16T04:41:34;16.90;94.60
35603;DHT22;21725;50.836;4.368;2022-09-16T04:44:24;17.00;94.20
35603;DHT22;21725;50.836;4.368;2022-09-16T04:50:16;17.10;94.00
35603;DHT22;21725;50.836;4.368;2022-09-16T04:56:20;17.10;93.90
35603;DHT22;21725;50.836;4.368;2022-09-16T04:59:21;17.10;94.10
35603;DHT22;21725;50.836;4.368;2022-09-16T05:01:57;16.90;94.40
35603;DHT22;21725;50.836;4.368;2022-09-16T05:04:40;16.90;94.50
35603;DHT22;21725;50.836;4.368;2022-09-16T05:10:41;17.10;94.40
35603;DHT22;21725;50.836;4.368;2022-09-16T05:13:47;17.20;94.30
35603;DHT22;21725;50.836;4.368;2022-09-16T05:16:23;17.30;94.20
35603;DHT22;21725;50.836;4.368;2022-09-16T05:19:14;17.30;93.90
35603;DHT22;21725;50.836;4.368;2022-09-16T05:21:43;17.20;94.00
35603;DHT22;21725;50.836;4.368;2022-09-16T05:24:22;17.00;94.40
35603;DHT22;21725;50.836;4.368;2022-09-16T05:27:21;16.90;94.60
35603;DHT22;21725;50.836;4.368;2022-09-16T05:30:05;16.70;95.00
35603;DHT22;21725;50.836;4.368;2022-09-16T05:35:35;17.00;94.60
35603;DHT22;21725;50.836;4.368;2022-09-16T05:41:35;16.90;95.30
35603;DHT22;21725;50.836;4.368;2022-09-16T05:44:46;16.70;95.60
35603;DHT22;21725;50.836;4.368;2022-09-16T05:47:28;16.90;95.20
35603;DHT22;21725;50.836;4.368;2022-09-16T05:53:57;16.90;95.20
35603;DHT22;21725;50.836;4.368;2022-09-16T06:00:08;16.80;95.60
35603;DHT22;21725;50.836;4.368;2022-09-16T06:02:48;17.00;95.40
35603;DHT22;21725;50.836;4.368;2022-09-16T06:05:52;17.00;95.50
35603;DHT22;21725;50.836;4.368;2022-09-16T06:08:41;16.80;96.00
35603;DHT22;21725;50.836;4.368;2022-09-16T06:11:37;17.00;96.10
35603;DHT22;21725;50.836;4.368;2022-09-16T06:14:25;17.10;95.70
35603;DHT22;21725;50.836;4.368;2022-09-16T06:16:53;16.70;96.80
35603;DHT22;21725;50.836;4.368;2022-09-16T06:19:29;16.60;97.30
35603;DHT22;21725;50.836;4.368;2022-09-16T06:22:17;16.50;97.60
35603;DHT22;21725;50.836;4.368;2022-09-16T06:24:53;16.80;97.70
35603;DHT22;21725;50.836;4.368;2022-09-16T06:27:55;16.90;97.30
35603;DHT22;21725;50.836;4.368;2022-09-16T06:34:34;16.40;98.20
35603;DHT22;21725;50.836;4.368;2022-09-16T06:37:22;16.60;98.70
35603;DHT22;21725;50.836;4.368;2022-09-16T06:40:08;17.00;98.20
35603;DHT22;21725;50.836;4.368;2022-09-16T06:42:54;17.20;98.20
35603;DHT22;21725;50.836;4.368;2022-09-16T06:46:05;17.10;98.30
35603;DHT22;21725;50.836;4.368;2022-09-16T06:49:03;17.20;97.30
35603;DHT22;21725;50.836;4.368;2022-09-16T06:51:44;17.30;97.50
35603;DHT22;21725;50.836;4.368;2022-09-16T06:54:22;17.40;97.10
35603;DHT22;21725;50.836;4.368;2022-09-16T06:57:15;17.30;97.40
35603;DHT22;21725;50.836;4.368;2022-09-16T07:00:15;17.10;97.60
35603;DHT22;21725;50.836;4.368;2022-09-16T07:02:50;16.90;99.00
35603;DHT22;21725;50.836;4.368;2022-09-16T07:05:53;16.80;99.50
35603;DHT22;21725;50.836;4.368;2022-09-16T07:08:39;16.90;99.60
35603;DHT22;21725;50.836;4.368;2022-09-16T07:11:42;16.70;99.80
35603;DHT22;21725;50.836;4.368;2022-09-16T07:14:27;16.90;99.90
35603;DHT22;21725;50.836;4.368;2022-09-16T07:16:59;17.10;99.40
35603;DHT22;21725;50.836;4.368;2022-09-16T07:19:38;17.10;99.40
35603;DHT22;21725;50.836;4.368;2022-09-16T07:22:15;16.90;99.90
35603;DHT22;21725;50.836;4.368;2022-09-16T07:24:43;17.00;99.70
35603;DHT22;21725;50.836;4.368;2022-09-16T07:30:43;17.00;99.50
35603;DHT22;21725;50.836;4.368;2022-09-16T07:33:29;16.90;99.90
35603;DHT22;21725;50.836;4.368;2022-09-16T07:36:25;16.90;99.90
35603;DHT22;21725;50.836;4.368;2022-09-16T07:39:12;16.70;99.90
35603;DHT22;21725;50.836;4.368;2022-09-16T07:41:50;16.90;99.90
35603;DHT22;21725;50.836;4.368;2022-09-16T07:44:35;17.10;99.60
35603;DHT22;21725;50.836;4.368;2022-09-16T07:47:17;17.10;99.80
35603;DHT22;21725;50.836;4.368;2022-09-16T07:50:03;17.10;99.20
35603;DHT22;21725;50.836;4.368;2022-09-16T07:53:21;17.20;99.00
35603;DHT22;21725;50.836;4.368;2022-09-16T07:56:07;17.40;98.50
35603;DHT22;21725;50.836;4.368;2022-09-16T07:58:33;17.40;98.50
35603;DHT22;21725;50.836;4.368;2022-09-16T08:01:22;17.40;98.60
35603;DHT22;21725;50.836;4.368;2022-09-16T08:04:01;17.30;98.80
35603;DHT22;21725;50.836;4.368;2022-09-16T08:06:39;17.50;97.90
35603;DHT22;21725;50.836;4.368;2022-09-16T08:09:26;17.30;98.50
35603;DHT22;21725;50.836;4.368;2022-09-16T08:12:21;17.30;98.50
35603;DHT22;21725;50.836;4.368;2022-09-16T08:14:52;17.50;97.90
35603;DHT22;21725;50.836;4.368;2022-09-16T08:20:40;18.10;97.20
35603;DHT22;21725;50.836;4.368;2022-09-16T08:23:08;18.10;97.30
35603;DHT22;21725;50.836;4.368;2022-09-16T08:25:44;18.10;97.20
35603;DHT22;21725;50.836;4.368;2022-09-16T08:28:21;17.90;97.80
35603;DHT22;21725;50.836;4.368;2022-09-16T08:31:18;17.90;97.40
35603;DHT22;21725;50.836;4.368;2022-09-16T08:34:01;17.70;97.30
35603;DHT22;21725;50.836;4.368;2022-09-16T08:36:49;17.60;97.80
35603;DHT22;21725;50.836;4.368;2022-09-16T08:39:28;17.40;98.00
35603;DHT22;21725;50.836;4.368;2022-09-16T08:51:25;16.50;99.90
35603;DHT22;21725;50.836;4.368;2022-09-16T08:54:35;16.50;99.90
35603;DHT22;21725;50.836;4.368;2022-09-16T08:57:43;16.60;99.90
35603;DHT22;21725;50.836;4.368;2022-09-16T09:00:33;16.90;99.90
35603;DHT22;21725;50.836;4.368;2022-09-16T09:06:32;16.50;99.90
35603;DHT22;21725;50.836;4.368;2022-09-16T09:27:52;17.10;99.90
35603;DHT22;21725;50.836;4.368;2022-09-16T09:37:00;17.60;99.90
35603;DHT22;21725;50.836;4.368;2022-09-16T09:46:21;18.30;97.40
35603;DHT22;21725;50.836;4.368;2022-09-16T09:55:21;18.00;97.70
35603;DHT22;21725;50.836;4.368;2022-09-16T10:01:11;18.50;95.80
35603;DHT22;21725;50.836;4.368;2022-09-16T10:03:56;18.70;95.70
35603;DHT22;21725;50.836;4.368;2022-09-16T10:09:33;19.20;95.20
35603;DHT22;21725;50.836;4.368;2022-09-16T10:13:04;19.60;94.50
35603;DHT22;21725;50.836;4.368;2022-09-16T10:19:01;19.50;94.70
35603;DHT22;21725;50.836;4.368;2022-09-16T10:32:29;19.80;93.00
35603;DHT22;21725;50.836;4.368;2022-09-16T10:35:51;19.30;92.60
35603;DHT22;21725;50.836;4.368;2022-09-16T11:07:10;17.30;99.90
35603;DHT22;21725;50.836;4.368;2022-09-16T11:19:36;18.50;96.70
35603;DHT22;21725;50.836;4.368;2022-09-16T11:26:10;18.40;96.70
35603;DHT22;21725;50.836;4.368;2022-09-16T11:38:51;17.30;97.40
35603;DHT22;21725;50.836;4.368;2022-09-16T11:42:20;17.30;97.00
35603;DHT22;21725;50.836;4.368;2022-09-16T11:48:40;17.10;96.80
35603;DHT22;21725;50.836;4.368;2022-09-16T12:06:03;15.10;99.90
35603;DHT22;21725;50.836;4.368;2022-09-16T12:09:16;14.40;99.90
35603;DHT22;21725;50.836;4.368;2022-09-16T12:12:48;15.10;99.90
35603;DHT22;21725;50.836;4.368;2022-09-16T12:15:33;15.20;99.90
35603;DHT22;21725;50.836;4.368;2022-09-16T12:25:46;15.50;99.90
35603;DHT22;21725;50.836;4.368;2022-09-16T12:28:44;15.50;99.90
35603;DHT22;21725;50.836;4.368;2022-09-16T12:31:49;15.50;99.90
35603;DHT22;21725;50.836;4.368;2022-09-16T12:59:04;17.60;97.90
35603;DHT22;21725;50.836;4.368;2022-09-16T13:39:00;18.10;99.50
35603;DHT22;21725;50.836;4.368;2022-09-16T13:42:16;18.50;98.20
35603;DHT22;21725;50.836;4.368;2022-09-16T13:45:02;16.90;98.90
35603;DHT22;21725;50.836;4.368;2022-09-16T13:48:04;15.30;99.90
35603;DHT22;21725;50.836;4.368;2022-09-16T13:51:19;14.50;99.90
35603;DHT22;21725;50.836;4.368;2022-09-16T14:45:04;15.90;99.90
35603;DHT22;21725;50.836;4.368;2022-09-16T14:51:29;16.10;99.50
35603;DHT22;21725;50.836;4.368;2022-09-16T14:54:23;16.10;99.10
35603;DHT22;21725;50.836;4.368;2022-09-16T14:57:26;16.10;98.70
35603;DHT22;21725;50.836;4.368;2022-09-16T15:00:04;17.20;96.70
35603;DHT22;21725;50.836;4.368;2022-09-16T15:03:14;16.60;96.00
35603;DHT22;21725;50.836;4.368;2022-09-16T15:05:54;16.40;97.20
35603;DHT22;21725;50.836;4.368;2022-09-16T15:08:40;16.50;96.90
35603;DHT22;21725;50.836;4.368;2022-09-16T15:15:16;16.90;95.10
35603;DHT22;21725;50.836;4.368;2022-09-16T15:18:31;16.80;95.30
35603;DHT22;21725;50.836;4.368;2022-09-16T15:24:55;16.60;95.10
35603;DHT22;21725;50.836;4.368;2022-09-16T16:10:03;16.60;96.00
35603;DHT22;21725;50.836;4.368;2022-09-16T16:13:13;16.80;96.00
35603;DHT22;21725;50.836;4.368;2022-09-16T16:16:17;16.90;95.60
35603;DHT22;21725;50.836;4.368;2022-09-16T16:25:50;16.40;96.60
35603;DHT22;21725;50.836;4.368;2022-09-16T18:51:02;15.50;99.90
35603;DHT22;21725;50.836;4.368;2022-09-16T18:54:06;15.60;99.90
35603;DHT22;21725;50.836;4.368;2022-09-16T18:57:18;15.90;99.90
35603;DHT22;21725;50.836;4.368;2022-09-16T19:00:04;15.90;99.90
35603;DHT22;21725;50.836;4.368;2022-09-16T19:06:27;15.50;99.90
35603;DHT22;21725;50.836;4.368;2022-09-16T19:12:41;15.40;99.90
35603;DHT22;21725;50.836;4.368;2022-09-16T19:15:22;15.40;99.90
35603;DHT22;21725;50.836;4.368;2022-09-16T19:21:38;15.10;99.90
35603;DHT22;21725;50.836;4.368;2022-09-16T19:30:45;15.20;99.90
35603;DHT22;21725;50.836;4.368;2022-09-16T19:33:11;15.20;99.90
35603;DHT22;21725;50.836;4.368;2022-09-16T19:35:37;15.10;99.90
35603;DHT22;21725;50.836;4.368;2022-09-16T19:38:04;15.20;99.90
35603;DHT22;21725;50.836;4.368;2022-09-16T19:40:30;15.70;99.90
35603;DHT22;21725;50.836;4.368;2022-09-16T19:42:55;15.20;99.90
35603;DHT22;21725;50.836;4.368;2022-09-16T19:45:22;15.00;99.90
35603;DHT22;21725;50.836;4.368;2022-09-16T19:47:50;15.70;99.90
35603;DHT22;21725;50.836;4.368;2022-09-16T19:50:19;15.00;99.90
35603;DHT22;21725;50.836;4.368;2022-09-16T19:52:44;14.90;99.90
35603;DHT22;21725;50.836;4.368;2022-09-16T19:55:10;14.80;99.90
35603;DHT22;21725;50.836;4.368;2022-09-16T19:57:36;14.60;99.90
35603;DHT22;21725;50.836;4.368;2022-09-16T20:00:03;14.50;99.90
35603;DHT22;21725;50.836;4.368;2022-09-16T20:02:31;14.50;99.90
35603;DHT22;21725;50.836;4.368;2022-09-16T20:04:56;14.50;99.90
35603;DHT22;21725;50.836;4.368;2022-09-16T20:07:22;14.90;99.90
35603;DHT22;21725;50.836;4.368;2022-09-16T20:09:48;14.40;99.90
35603;DHT22;21725;50.836;4.368;2022-09-16T20:12:14;15.30;99.90
35603;DHT22;21725;50.836;4.368;2022-09-16T20:14:39;14.50;99.90
35603;DHT22;21725;50.836;4.368;2022-09-16T20:17:06;14.60;99.90
35603;DHT22;21725;50.836;4.368;2022-09-16T20:19:32;14.50;99.90
35603;DHT22;21725;50.836;4.368;2022-09-16T20:21:58;14.30;99.90
35603;DHT22;21725;50.836;4.368;2022-09-16T20:24:24;14.40;99.90
35603;DHT22;21725;50.836;4.368;2022-09-16T20:26:53;14.10;99.90
35603;DHT22;21725;50.836;4.368;2022-09-16T20:29:19;15.20;99.90
35603;DHT22;21725;50.836;4.368;2022-09-16T20:31:47;14.10;99.90
35603;DHT22;21725;50.836;4.368;2022-09-16T20:34:13;14.10;99.90
35603;DHT22;21725;50.836;4.368;2022-09-16T20:36:42;14.10;99.90
35603;DHT22;21725;50.836;4.368;2022-09-16T20:39:09;14.10;99.90
35603;DHT22;21725;50.836;4.368;2022-09-16T20:41:37;14.40;99.90
35603;DHT22;21725;50.836;4.368;2022-09-16T20:44:04;14.40;99.90
35603;DHT22;21725;50.836;4.368;2022-09-16T20:46:34;14.10;99.90
35603;DHT22;21725;50.836;4.368;2022-09-16T20:49:02;14.10;99.90
35603;DHT22;21725;50.836;4.368;2022-09-16T20:51:31;14.20;99.90
35603;DHT22;21725;50.836;4.368;2022-09-16T20:54:33;14.10;99.90
35603;DHT22;21725;50.836;4.368;2022-09-16T20:57:11;14.10;99.90
35603;DHT22;21725;50.836;4.368;2022-09-16T21:00:10;13.90;99.90
35603;DHT22;21725;50.836;4.368;2022-09-16T21:03:03;13.70;99.90
35603;DHT22;21725;50.836;4.368;2022-09-16T21:06:01;13.90;99.90
35603;DHT22;21725;50.836;4.368;2022-09-16T21:08:54;13.50;99.90
35603;DHT22;21725;50.836;4.368;2022-09-16T21:11:40;13.90;99.90
35603;DHT22;21725;50.836;4.368;2022-09-16T21:21:36;13.60;99.90
35603;DHT22;21725;50.836;4.368;2022-09-16T21:24:09;13.80;99.90
35603;DHT22;21725;50.836;4.368;2022-09-16T21:26:57;13.80;99.90
35603;DHT22;21725;50.836;4.368;2022-09-16T21:29:42;13.80;99.90
35603;DHT22;21725;50.836;4.368;2022-09-16T21:36:31;14.10;99.90
35603;DHT22;21725;50.836;4.368;2022-09-16T21:39:20;14.20;99.90
35603;DHT22;21725;50.836;4.368;2022-09-16T21:42:06;14.40;99.90
35603;DHT22;21725;50.836;4.368;2022-09-16T21:45:12;14.50;99.90
35603;DHT22;21725;50.836;4.368;2022-09-16T21:47:37;14.50;99.90
35603;DHT22;21725;50.836;4.368;2022-09-16T21:50:36;14.50;99.90
35603;DHT22;21725;50.836;4.368;2022-09-16T21:53:32;14.20;99.90
35603;DHT22;21725;50.836;4.368;2022-09-16T22:08:59;14.10;99.90
35603;DHT22;21725;50.836;4.368;2022-09-16T22:18:50;13.90;99.90
35603;DHT22;21725;50.836;4.368;2022-09-16T22:21:48;14.10;99.90
35603;DHT22;21725;50.836;4.368;2022-09-16T22:35:34;14.00;99.90
35603;DHT22;21725;50.836;4.368;2022-09-16T22:55:24;13.80;99.90
35603;DHT22;21725;50.836;4.368;2022-09-16T22:58:49;14.10;99.90
35603;DHT22;21725;50.836;4.368;2022-09-16T23:05:14;14.10;99.90
35603;DHT22;21725;50.836;4.368;2022-09-16T23:07:40;14.00;99.90
35603;DHT22;21725;50.836;4.368;2022-09-16T23:10:45;13.90;99.90
35603;DHT22;21725;50.836;4.368;2022-09-16T23:13:51;14.00;99.90
35603;DHT22;21725;50.836;4.368;2022-09-16T23:16:32;14.10;99.90
35603;DHT22;21725;50.836;4.368;2022-09-16T23:19:28;14.10;99.90
35603;DHT22;21725;50.836;4.368;2022-09-16T23:22:27;14.50;99.90
35603;DHT22;21725;50.836;4.368;2022-09-16T23:25:15;14.10;99.90
35603;DHT22;21725;50.836;4.368;2022-09-16T23:28:03;14.10;99.90
35603;DHT22;21725;50.836;4.368;2022-09-16T23:31:00;14.00;99.90
35603;DHT22;21725;50.836;4.368;2022-09-16T23:33:46;14.20;99.90
35603;DHT22;21725;50.836;4.368;2022-09-16T23:36:27;14.10;99.90
35603;DHT22;21725;50.836;4.368;2022-09-16T23:39:17;14.00;99.90
35603;DHT22;21725;50.836;4.368;2022-09-16T23:42:10;14.20;99.90
35603;DHT22;21725;50.836;4.368;2022-09-16T23:45:06;14.60;99.90
35603;DHT22;21725;50.836;4.368;2022-09-16T23:47:42;14.00;99.90
35603;DHT22;21725;50.836;4.368;2022-09-16T23:50:38;14.00;99.90
35603;DHT22;21725;50.836;4.368;2022-09-16T23:53:30;14.20;99.90
35603;DHT22;21725;50.836;4.368;2022-09-16T23:59:12;14.60;99.90
